Time;durP1;ratioP1;P1;durP2;ratioP2;P2;SDS_P1;SDS_P2;PMS_P1;PMS_P2;Temp;Humidity;BMP_temperature;BMP_pressure;BME280_temperature;BME280_humidity;BME280_pressure;Samples;Min_cycle;Max_cycle;Signal;HPM_P1;HPM_P2
2022/10/25 00:01:29;;;;;;;;;;;;;;;;;;4979228;28;19922;-85
2022/10/25 00:04:02;;;;;;;;;;;;;;;;;;4974104;28;19929;-85
2022/10/25 00:06:34;;;;;;;;;;;;;;;;;;4973906;28;19921;-85
2022/10/25 00:09:07;;;;;;;;;;;;;;;;;;4975495;28;19922;-85
2022/10/25 00:11:39;;;;;;;;;;;;;;;;;;4975082;28;19926;-85
2022/10/25 00:14:17;;;;;;;;;;;;;;;;;;4977380;28;19922;-85
2022/10/25 00:16:44;;;;;;;;;;;;;;;;;;4987052;28;19941;-85
2022/10/25 00:19:13;;;;;;;;;;;;;;;;;;4973477;28;19922;-85
2022/10/25 00:21:40;;;;;;;;;;;;;;;;;;4975307;28;19933;-86
2022/10/25 00:24:09;;;;;;;;;;;;;;;;;;4974045;28;20305;-85
2022/10/25 00:26:39;;;;;;;;;;;;;;;;;;4974807;28;20279;-85
2022/10/25 00:29:06;;;;;;;;;;;;;;;;;;4979299;28;20275;-86
2022/10/25 00:31:34;;;;;;;;;;;;;;;;;;4975181;28;19925;-85
2022/10/25 00:34:01;;;;;;;;;;;;;;;;;;4974845;28;19926;-84
2022/10/25 00:36:29;;;;;;;;;;;;;;;;;;4974154;28;19933;-85
2022/10/25 00:39:01;;;;;;;;;;;;;;;;;;4969553;28;19941;-85
2022/10/25 00:41:34;;;;;;;;;;;;;;;;;;4973786;28;19929;-85
2022/10/25 00:44:06;;;;;;;;;;;;;;;;;;4974939;28;19933;-85
2022/10/25 00:46:39;;;;;;;;;;;;;;;;;;4984926;28;19933;-86
2022/10/25 00:49:06;;;;;;;;;;;;;;;;;;4976111;28;20299;-85
2022/10/25 00:51:39;;;;;;;;;;;;;;;;;;4969655;28;19929;-84
2022/10/25 00:54:06;;;;;;;;;;;;;;;;;;4974243;28;20627;-85
2022/10/25 00:56:39;;;;;;;;;;;;;;;;;;4970420;28;19933;-85
2022/10/25 00:59:07;;;;;;;;;;;;;;;;;;4972405;28;19929;-85
2022/10/25 01:01:39;;;;;;;;;;;;;;;;;;4969821;28;19933;-85
2022/10/25 01:04:06;;;;;;;;;;;;;;;;;;4975304;28;19922;-84
2022/10/25 01:06:34;;;;;;;;;;;;;;;;;;4974760;28;19922;-85
2022/10/25 01:09:01;;;;;;;;;;;;;;;;;;4974119;28;19922;-85
2022/10/25 01:11:29;;;;;;;;;;;;;;;;;;4974119;28;20398;-85
2022/10/25 01:13:57;;;;;;;;;;;;;;;;;;4974758;28;20379;-84
2022/10/25 01:16:24;;;;;;;;;;;;;;;;;;4972263;28;20295;-84
2022/10/25 01:18:57;;;;;;;;;;;;;;;;;;4973521;28;19922;-85
2022/10/25 01:21:29;;;;;;;;;;;;;;;;;;4967909;28;19926;-85
2022/10/25 01:23:57;;;;;;;;;;;;;;;;;;4974143;28;19922;-86
2022/10/25 01:26:24;;;;;;;;;;;;;;;;;;4973930;28;19922;-85
2022/10/25 01:28:56;;;;;;;;;;;;;;;;;;4973712;28;19922;-85
2022/10/25 01:31:24;;;;;;;;;;;;;;;;;;4972668;28;19922;-85
2022/10/25 01:33:51;;;;;;;;;;;;;;;;;;4970825;28;19934;-84
2022/10/25 01:36:19;;;;;;;;;;;;;;;;;;4968034;28;19949;-85
2022/10/25 01:38:46;;;;;;;;;;;;;;;;;;4975703;28;19922;-85
2022/10/25 01:41:14;;;;;;;;;;;;;;;;;;4971117;28;20287;-85
2022/10/25 01:43:41;;;;;;;;;;;;;;;;;;4970838;28;19948;-85
2022/10/25 01:46:09;;;;;;;;;;;;;;;;;;4974420;28;19926;-85
2022/10/25 01:48:36;;;;;;;;;;;;;;;;;;4978444;28;19922;-85
2022/10/25 01:51:04;;;;;;;;;;;;;;;;;;4980238;28;19922;-86
2022/10/25 01:53:31;;;;;;;;;;;;;;;;;;4971931;28;19922;-85
2022/10/25 01:56:04;;;;;;;;;;;;;;;;;;4988388;28;19922;-85
2022/10/25 01:58:36;;;;;;;;;;;;;;;;;;4978366;28;19922;-84
2022/10/25 02:01:04;;;;;;;;;;;;;;;;;;4982219;28;19921;-85
2022/10/25 02:03:31;;;;;;;;;;;;;;;;;;4988080;28;19933;-84
2022/10/25 02:05:59;;;;;;;;;;;;;;;;;;4972204;28;19929;-85
2022/10/25 02:08:27;;;;;;;;;;;;;;;;;;4970287;28;19930;-85
2022/10/25 02:10:55;;;;;;;;;;;;;;;;;;4971825;28;19922;-84
2022/10/25 02:13:22;;;;;;;;;;;;;;;;;;4973348;28;19922;-85
2022/10/25 02:15:50;;;;;;;;;;;;;;;;;;4972174;28;19926;-85
2022/10/25 02:18:17;;;;;;;;;;;;;;;;;;4973017;28;19929;-84
2022/10/25 02:20:45;;;;;;;;;;;;;;;;;;4974608;28;21425;-84
2022/10/25 02:23:12;;;;;;;;;;;;;;;;;;4974369;28;19922;-84
2022/10/25 02:25:40;;;;;;;;;;;;;;;;;;4989684;28;19933;-84
2022/10/25 02:28:13;;;;;;;;;;;;;;;;;;4973054;28;19929;-84
2022/10/25 02:30:45;;;;;;;;;;;;;;;;;;4969892;28;20287;-85
2022/10/25 02:33:13;;;;;;;;;;;;;;;;;;4970926;28;19941;-85
2022/10/25 02:35:40;;;;;;;;;;;;;;;;;;4987520;28;19930;-85
2022/10/25 02:38:08;;;;;;;;;;;;;;;;;;4973053;28;19922;-85
2022/10/25 02:40:40;;;;;;;;;;;;;;;;;;4971942;28;19926;-86
2022/10/25 02:43:07;;;;;;;;;;;;;;;;;;4971904;28;20386;-85
2022/10/25 02:45:35;;;;;;;;;;;;;;;;;;4970226;28;19922;-85
2022/10/25 02:48:02;;;;;;;;;;;;;;;;;;4988315;28;19921;-85
2022/10/25 02:50:30;;;;;;;;;;;;;;;;;;4973400;28;20347;-85
2022/10/25 02:52:57;;;;;;;;;;;;;;;;;;4969733;28;20414;-85
2022/10/25 02:55:30;;;;;;;;;;;;;;;;;;4971521;28;19926;-85
2022/10/25 02:58:02;;;;;;;;;;;;;;;;;;4978597;28;20267;-86
2022/10/25 03:00:30;;;;;;;;;;;;;;;;;;4964915;28;19933;-86
2022/10/25 03:02:57;;;;;;;;;;;;;;;;;;4989752;28;19937;-86
2022/10/25 03:05:25;;;;;;;;;;;;;;;;;;4972123;28;19926;-85
2022/10/25 03:07:52;;;;;;;;;;;;;;;;;;4976586;28;20397;-85
2022/10/25 03:10:25;;;;;;;;;;;;;;;;;;4965250;28;19929;-85
2022/10/25 03:12:57;;;;;;;;;;;;;;;;;;4973180;28;19922;-85
2022/10/25 03:15:30;;;;;;;;;;;;;;;;;;4971300;28;19929;-86
2022/10/25 03:18:03;;;;;;;;;;;;;;;;;;4971814;28;20014;-85
2022/10/25 03:20:36;;;;;;;;;;;;;;;;;;4973607;28;19922;-85
2022/10/25 03:23:08;;;;;;;;;;;;;;;;;;4968942;28;20287;-84
2022/10/25 03:25:36;;;;;;;;;;;;;;;;;;4975601;28;19922;-85
2022/10/25 03:28:08;;;;;;;;;;;;;;;;;;4976829;28;19922;-85
2022/10/25 03:30:41;;;;;;;;;;;;;;;;;;4979164;28;19953;-85
2022/10/25 03:33:08;;;;;;;;;;;;;;;;;;4975653;28;19922;-86
2022/10/25 03:35:41;;;;;;;;;;;;;;;;;;4970179;28;19933;-85
2022/10/25 03:38:13;;;;;;;;;;;;;;;;;;4975294;28;19922;-85
2022/10/25 03:40:46;;;;;;;;;;;;;;;;;;4978512;28;19926;-85
2022/10/25 03:43:18;;;;;;;;;;;;;;;;;;4980569;28;19922;-85
2022/10/25 03:45:51;;;;;;;;;;;;;;;;;;4975107;28;19926;-85
2022/10/25 03:48:24;;;;;;;;;;;;;;;;;;4974368;28;19922;-86
2022/10/25 03:50:51;;;;;;;;;;;;;;;;;;4975496;28;19949;-85
2022/10/25 03:53:24;;;;;;;;;;;;;;;;;;4976797;28;20313;-85
2022/10/25 03:55:51;;;;;;;;;;;;;;;;;;4988299;28;19926;-84
2022/10/25 03:58:24;;;;;;;;;;;;;;;;;;4973304;28;19930;-86
2022/10/25 04:00:51;;;;;;;;;;;;;;;;;;4977553;28;19936;-86
2022/10/25 04:03:23;;;;;;;;;;;;;;;;;;4987459;28;19933;-85
2022/10/25 04:05:56;;;;;;;;;;;;;;;;;;4975415;28;19926;-84
2022/10/25 04:08:29;;;;;;;;;;;;;;;;;;4975914;28;19941;-85
2022/10/25 04:10:56;;;;;;;;;;;;;;;;;;4990800;28;19929;-86
2022/10/25 04:13:23;;;;;;;;;;;;;;;;;;4976634;28;19929;-85
2022/10/25 04:15:51;;;;;;;;;;;;;;;;;;4974661;28;19937;-85
2022/10/25 04:18:19;;;;;;;;;;;;;;;;;;4991219;28;19922;-86
2022/10/25 04:20:46;;;;;;;;;;;;;;;;;;4976233;28;19922;-85
2022/10/25 04:23:14;;;;;;;;;;;;;;;;;;4976342;28;19929;-86
2022/10/25 04:25:46;;;;;;;;;;;;;;;;;;4967882;28;19929;-84
2022/10/25 04:28:14;;;;;;;;;;;;;;;;;;4972791;28;21541;-84
2022/10/25 04:30:46;;;;;;;;;;;;;;;;;;4965137;28;20402;-85
2022/10/25 04:33:19;;;;;;;;;;;;;;;;;;4975848;28;19922;-85
2022/10/25 04:35:51;;;;;;;;;;;;;;;;;;4972703;28;20391;-85
2022/10/25 04:38:20;;;;;;;;;;;;;;;;;;4986752;28;19937;-86
2022/10/25 04:40:50;;;;;;;;;;;;;;;;;;4968532;28;19922;-86
2022/10/25 04:43:18;;;;;;;;;;;;;;;;;;4974760;28;19930;-84
2022/10/25 04:45:45;;;;;;;;;;;;;;;;;;4983585;28;19922;-86
2022/10/25 04:48:13;;;;;;;;;;;;;;;;;;4974685;28;19926;-85
2022/10/25 04:50:45;;;;;;;;;;;;;;;;;;4971689;28;20383;-85
2022/10/25 04:53:13;;;;;;;;;;;;;;;;;;4988449;28;19926;-85
2022/10/25 04:55:40;;;;;;;;;;;;;;;;;;4971019;28;20356;-86
2022/10/25 04:58:08;;;;;;;;;;;;;;;;;;4970420;28;20409;-84
2022/10/25 05:00:35;;;;;;;;;;;;;;;;;;4974215;28;19922;-85
2022/10/25 05:03:08;;;;;;;;;;;;;;;;;;4972493;28;19922;-85
2022/10/25 05:05:35;;;;;;;;;;;;;;;;;;4988983;28;20406;-87
2022/10/25 05:08:08;;;;;;;;;;;;;;;;;;4973730;28;20267;-84
2022/10/25 05:10:36;;;;;;;;;;;;;;;;;;4969896;28;19922;-85
2022/10/25 05:13:08;;;;;;;;;;;;;;;;;;4969669;28;19926;-84
2022/10/25 05:15:36;;;;;;;;;;;;;;;;;;4970473;28;19923;-86
2022/10/25 05:18:04;;;;;;;;;;;;;;;;;;4971992;28;19925;-86
2022/10/25 05:20:31;;;;;;;;;;;;;;;;;;4972334;28;19925;-86
2022/10/25 05:22:59;;;;;;;;;;;;;;;;;;4985859;28;19930;-85
2022/10/25 05:25:26;;;;;;;;;;;;;;;;;;4967817;28;19923;-86
2022/10/25 05:27:54;;;;;;;;;;;;;;;;;;4972267;28;19922;-86
2022/10/25 05:30:22;;;;;;;;;;;;;;;;;;4989545;28;19929;-87
2022/10/25 05:32:51;;;;;;;;;;;;;;;;;;4971917;28;19927;-86
2022/10/25 05:35:18;;;;;;;;;;;;;;;;;;4974434;28;19921;-87
2022/10/25 05:37:51;;;;;;;;;;;;;;;;;;4970137;28;19929;-85
2022/10/25 05:40:18;;;;;;;;;;;;;;;;;;4961713;28;21151;-85
2022/10/25 05:42:51;;;;;;;;;;;;;;;;;;4972691;28;19934;-84
2022/10/25 05:45:18;;;;;;;;;;;;;;;;;;4967980;28;19929;-84
2022/10/25 05:47:51;;;;;;;;;;;;;;;;;;4953067;28;19937;-84
2022/10/25 05:50:18;;;;;;;;;;;;;;;;;;4962411;28;20227;-84
2022/10/25 05:52:46;;;;;;;;;;;;;;;;;;4946455;28;19929;-85
2022/10/25 05:55:13;;;;;;;;;;;;;;;;;;4951315;28;19956;-84
2022/10/25 05:57:41;;;;;;;;;;;;;;;;;;4958328;28;19957;-84
2022/10/25 06:00:14;;;;;;;;;;;;;;;;;;4950271;28;19930;-85
2022/10/25 06:02:41;;;;;;;;;;;;;;;;;;4971183;28;20446;-84
2022/10/25 06:05:14;;;;;;;;;;;;;;;;;;4952721;28;19929;-83
2022/10/25 06:07:46;;;;;;;;;;;;;;;;;;4961348;28;20131;-84
2022/10/25 06:10:14;;;;;;;;;;;;;;;;;;4949433;28;19933;-83
2022/10/25 06:12:46;;;;;;;;;;;;;;;;;;4949722;28;19930;-85
2022/10/25 06:15:14;;;;;;;;;;;;;;;;;;4952618;28;19937;-84
2022/10/25 06:17:41;;;;;;;;;;;;;;;;;;4947827;28;19930;-84
2022/10/25 06:20:09;;;;;;;;;;;;;;;;;;4953053;28;19929;-85
2022/10/25 06:22:36;;;;;;;;;;;;;;;;;;4955710;28;19960;-85
2022/10/25 06:25:04;;;;;;;;;;;;;;;;;;4969553;28;19937;-83
2022/10/25 06:27:31;;;;;;;;;;;;;;;;;;4950169;28;19929;-85
2022/10/25 06:30:04;;;;;;;;;;;;;;;;;;4962083;28;20130;-84
2022/10/25 06:32:37;;;;;;;;;;;;;;;;;;4951022;28;20362;-85
2022/10/25 06:35:09;;;;;;;;;;;;;;;;;;4946872;28;19932;-84
2022/10/25 06:37:39;;;;;;;;;;;;;;;;;;4943702;28;19936;-84
2022/10/25 06:40:07;;;;;;;;;;;;;;;;;;4944643;28;19941;-84
2022/10/25 06:42:39;;;;;;;;;;;;;;;;;;4949083;28;20527;-84
2022/10/25 06:45:07;;;;;;;;;;;;;;;;;;4948407;28;19941;-84
2022/10/25 06:47:34;;;;;;;;;;;;;;;;;;4948706;28;19926;-84
2022/10/25 06:50:02;;;;;;;;;;;;;;;;;;4951584;28;19930;-84
2022/10/25 06:52:29;;;;;;;;;;;;;;;;;;4969552;28;19930;-85
2022/10/25 06:54:57;;;;;;;;;;;;;;;;;;4966350;28;19929;-85
2022/10/25 06:57:24;;;;;;;;;;;;;;;;;;4953003;28;21250;-83
2022/10/25 06:59:57;;;;;;;;;;;;;;;;;;4952901;28;20511;-84
2022/10/25 07:02:24;;;;;;;;;;;;;;;;;;4959428;28;19929;-85
2022/10/25 07:04:57;;;;;;;;;;;;;;;;;;4952061;28;19930;-85
2022/10/25 07:07:25;;;;;;;;;;;;;;;;;;4960268;28;19930;-84
2022/10/25 07:09:57;;;;;;;;;;;;;;;;;;4960605;28;19926;-84
2022/10/25 07:12:36;;;;;;;;;;;;;;;;;;4961823;28;19929;-84
2022/10/25 07:15:04;;;;;;;;;;;;;;;;;;4978830;28;19932;-84
2022/10/25 07:17:36;;;;;;;;;;;;;;;;;;4962575;28;19930;-84
2022/10/25 07:20:04;;;;;;;;;;;;;;;;;;4974824;28;20326;-84
2022/10/25 07:22:36;;;;;;;;;;;;;;;;;;4962457;28;19929;-83
2022/10/25 07:25:04;;;;;;;;;;;;;;;;;;4957026;28;19929;-84
2022/10/25 07:27:32;;;;;;;;;;;;;;;;;;4965388;28;19930;-84
2022/10/25 07:30:04;;;;;;;;;;;;;;;;;;4963435;28;19938;-84
2022/10/25 07:32:32;;;;;;;;;;;;;;;;;;4964324;28;20574;-84
2022/10/25 07:35:00;;;;;;;;;;;;;;;;;;4981216;28;20026;-84
2022/10/25 07:37:27;;;;;;;;;;;;;;;;;;4988860;28;19956;-84
2022/10/25 07:39:55;;;;;;;;;;;;;;;;;;4981418;28;19941;-83
2022/10/25 07:42:27;;;;;;;;;;;;;;;;;;4963020;28;19961;-84
2022/10/25 07:44:55;;;;;;;;;;;;;;;;;;4962051;28;19930;-83
2022/10/25 07:47:22;;;;;;;;;;;;;;;;;;4954769;28;20298;-83
2022/10/25 07:49:50;;;;;;;;;;;;;;;;;;4960534;28;19984;-82
2022/10/25 07:52:18;;;;;;;;;;;;;;;;;;4952382;28;19930;-83
2022/10/25 07:54:47;;;;;;;;;;;;;;;;;;4968713;28;19929;-82
2022/10/25 07:57:19;;;;;;;;;;;;;;;;;;4955753;28;19933;-83
2022/10/25 07:59:47;;;;;;;;;;;;;;;;;;4960829;28;19930;-83
2022/10/25 08:02:14;;;;;;;;;;;;;;;;;;4953746;28;20567;-83
2022/10/25 08:04:43;;;;;;;;;;;;;;;;;;4958378;28;19925;-82
2022/10/25 08:07:10;;;;;;;;;;;;;;;;;;4966189;28;19937;-82
2022/10/25 08:09:38;;;;;;;;;;;;;;;;;;4960259;28;19929;-82
2022/10/25 08:12:05;;;;;;;;;;;;;;;;;;4949237;28;19929;-83
2022/10/25 08:14:38;;;;;;;;;;;;;;;;;;4954380;28;19941;-83
2022/10/25 08:17:10;;;;;;;;;;;;;;;;;;4957273;28;19930;-82
2022/10/25 08:19:43;;;;;;;;;;;;;;;;;;4953944;28;20437;-81
2022/10/25 08:22:15;;;;;;;;;;;;;;;;;;4954939;28;19922;-84
2022/10/25 08:24:43;;;;;;;;;;;;;;;;;;4973647;28;19926;-83
2022/10/25 08:27:11;;;;;;;;;;;;;;;;;;4955349;28;19929;-84
2022/10/25 08:29:39;;;;;;;;;;;;;;;;;;4955658;28;19930;-81
2022/10/25 08:32:06;;;;;;;;;;;;;;;;;;4959751;28;19921;-84
2022/10/25 08:34:34;;;;;;;;;;;;;;;;;;4955935;28;19925;-83
2022/10/25 08:37:01;;;;;;;;;;;;;;;;;;4950283;28;19937;-84
2022/10/25 08:39:29;;;;;;;;;;;;;;;;;;4961967;28;20276;-83
2022/10/25 08:41:56;;;;;;;;;;;;;;;;;;4951725;28;19925;-81
2022/10/25 08:44:24;;;;;;;;;;;;;;;;;;4970032;28;20570;-83
2022/10/25 08:46:51;;;;;;;;;;;;;;;;;;4953857;28;19930;-84
2022/10/25 08:49:25;;;;;;;;;;;;;;;;;;4964543;28;20402;-83
2022/10/25 08:51:53;;;;;;;;;;;;;;;;;;4965042;28;19936;-81
2022/10/25 08:54:26;;;;;;;;;;;;;;;;;;4955337;28;19952;-83
2022/10/25 08:56:53;;;;;;;;;;;;;;;;;;4972546;28;20339;-82
2022/10/25 08:59:21;;;;;;;;;;;;;;;;;;4952227;28;19929;-81
2022/10/25 09:01:48;;;;;;;;;;;;;;;;;;4946821;28;19930;-84
2022/10/25 09:04:16;;;;;;;;;;;;;;;;;;4954121;28;20271;-85
2022/10/25 09:06:43;;;;;;;;;;;;;;;;;;4954951;28;19929;-83
2022/10/25 09:09:13;;;;;;;;;;;;;;;;;;4969136;28;19937;-81
2022/10/25 09:11:40;;;;;;;;;;;;;;;;;;4977789;28;19929;-83
2022/10/25 09:14:08;;;;;;;;;;;;;;;;;;4963830;28;19930;-83
2022/10/25 09:16:40;;;;;;;;;;;;;;;;;;4960640;28;19937;-84
2022/10/25 09:19:08;;;;;;;;;;;;;;;;;;4966327;28;19930;-83
2022/10/25 09:21:35;;;;;;;;;;;;;;;;;;4952310;28;19937;-82
2022/10/25 09:24:03;;;;;;;;;;;;;;;;;;4952048;28;20561;-83
2022/10/25 09:26:30;;;;;;;;;;;;;;;;;;4962892;28;19937;-82
2022/10/25 09:29:00;;;;;;;;;;;;;;;;;;4946817;28;20210;-83
2022/10/25 09:31:27;;;;;;;;;;;;;;;;;;4964956;28;19983;-84
2022/10/25 09:34:00;;;;;;;;;;;;;;;;;;4949659;28;19929;-84
2022/10/25 09:36:27;;;;;;;;;;;;;;;;;;4948656;28;20386;-83
2022/10/25 09:38:55;;;;;;;;;;;;;;;;;;4943135;28;20002;-83
2022/10/25 09:41:22;;;;;;;;;;;;;;;;;;4951645;28;19929;-82
2022/10/25 09:43:50;;;;;;;;;;;;;;;;;;4950138;28;19969;-82
2022/10/25 09:46:18;;;;;;;;;;;;;;;;;;4949161;28;19926;-84
2022/10/25 09:48:45;;;;;;;;;;;;;;;;;;4957816;28;20426;-82
2022/10/25 09:51:13;;;;;;;;;;;;;;;;;;4943499;28;19930;-82
2022/10/25 09:53:41;;;;;;;;;;;;;;;;;;4949936;28;19930;-84
2022/10/25 09:56:08;;;;;;;;;;;;;;;;;;4950371;28;19945;-84
2022/10/25 09:58:36;;;;;;;;;;;;;;;;;;4957961;28;19930;-82
2022/10/25 10:01:04;;;;;;;;;;;;;;;;;;4952389;28;19937;-82
2022/10/25 10:03:34;;;;;;;;;;;;;;;;;;4941991;28;19948;-83
2022/10/25 10:06:01;;;;;;;;;;;;;;;;;;4959985;28;20130;-82
2022/10/25 10:08:34;;;;;;;;;;;;;;;;;;4949853;28;19930;-84
2022/10/25 10:11:06;;;;;;;;;;;;;;;;;;4949429;28;19930;-83
2022/10/25 10:13:34;;;;;;;;;;;;;;;;;;4950208;28;19930;-83
2022/10/25 10:16:01;;;;;;;;;;;;;;;;;;4951208;28;19930;-81
2022/10/25 10:18:29;;;;;;;;;;;;;;;;;;4947566;28;20040;-80
2022/10/25 10:21:01;;;;;;;;;;;;;;;;;;4953030;28;20397;-81
2022/10/25 10:23:29;;;;;;;;;;;;;;;;;;4946551;28;21323;-81
2022/10/25 10:26:02;;;;;;;;;;;;;;;;;;4949169;28;19937;-83
2022/10/25 10:28:29;;;;;;;;;;;;;;;;;;4942604;28;19936;-83
2022/10/25 10:31:01;;;;;;;;;;;;;;;;;;4953711;28;20138;-81
2022/10/25 10:33:29;;;;;;;;;;;;;;;;;;4947410;28;19929;-82
2022/10/25 10:35:56;;;;;;;;;;;;;;;;;;4959460;28;19930;-83
2022/10/25 10:38:24;;;;;;;;;;;;;;;;;;4950787;28;19930;-83
2022/10/25 10:40:56;;;;;;;;;;;;;;;;;;4955362;28;19930;-80
2022/10/25 10:43:24;;;;;;;;;;;;;;;;;;4964978;28;19929;-83
2022/10/25 10:45:52;;;;;;;;;;;;;;;;;;4949693;28;20330;-83
2022/10/25 10:48:19;;;;;;;;;;;;;;;;;;4947397;28;19930;-83
2022/10/25 10:50:52;;;;;;;;;;;;;;;;;;4943559;28;19930;-80
2022/10/25 10:53:20;;;;;;;;;;;;;;;;;;4943846;28;20406;-82
2022/10/25 10:55:47;;;;;;;;;;;;;;;;;;4953262;28;21015;-83
2022/10/25 10:58:15;;;;;;;;;;;;;;;;;;4953471;28;19930;-83
2022/10/25 11:00:42;;;;;;;;;;;;;;;;;;4955512;28;19930;-83
2022/10/25 11:03:10;;;;;;;;;;;;;;;;;;4948543;28;19930;-83
2022/10/25 11:05:38;;;;;;;;;;;;;;;;;;4951426;28;19930;-80
2022/10/25 11:08:05;;;;;;;;;;;;;;;;;;4955643;28;19930;-81
2022/10/25 11:10:33;;;;;;;;;;;;;;;;;;4958046;28;20771;-83
2022/10/25 11:13:00;;;;;;;;;;;;;;;;;;4970432;28;19925;-80
2022/10/25 11:15:33;;;;;;;;;;;;;;;;;;4962189;28;19941;-83
2022/10/25 11:18:02;;;;;;;;;;;;;;;;;;4956559;28;19930;-82
2022/10/25 11:20:30;;;;;;;;;;;;;;;;;;4956855;28;19936;-84
2022/10/25 11:22:57;;;;;;;;;;;;;;;;;;4956584;28;19930;-80
2022/10/25 11:25:25;;;;;;;;;;;;;;;;;;4962949;28;19930;-83
2022/10/25 11:27:57;;;;;;;;;;;;;;;;;;4967768;28;20593;-83
2022/10/25 11:30:30;;;;;;;;;;;;;;;;;;4954965;28;21251;-86
2022/10/25 11:32:57;;;;;;;;;;;;;;;;;;4959414;28;19926;-84
2022/10/25 11:35:25;;;;;;;;;;;;;;;;;;4961340;28;19937;-83
2022/10/25 11:37:52;;;;;;;;;;;;;;;;;;4960324;28;19967;-81
2022/10/25 11:40:20;;;;;;;;;;;;;;;;;;4958186;28;19941;-80
2022/10/25 11:42:47;;;;;;;;;;;;;;;;;;4958368;28;19929;-86
2022/10/25 11:45:15;;;;;;;;;;;;;;;;;;4964329;28;19929;-81
2022/10/25 11:47:47;;;;;;;;;;;;;;;;;;4958043;28;19937;-83
2022/10/25 11:50:20;;;;;;;;;;;;;;;;;;4962210;28;19941;-83
2022/10/25 11:52:47;;;;;;;;;;;;;;;;;;4977899;28;19937;-82
2022/10/25 11:55:20;;;;;;;;;;;;;;;;;;4974985;28;19930;-84
2022/10/25 11:57:52;;;;;;;;;;;;;;;;;;4963464;28;19937;-82
2022/10/25 12:00:20;;;;;;;;;;;;;;;;;;4957966;28;19934;-82
2022/10/25 12:02:47;;;;;;;;;;;;;;;;;;4979270;28;19929;-83
2022/10/25 12:05:20;;;;;;;;;;;;;;;;;;4965575;28;19925;-84
2022/10/25 12:07:47;;;;;;;;;;;;;;;;;;5000101;28;19937;-81
2022/10/25 12:10:15;;;;;;;;;;;;;;;;;;4978335;28;19929;-83
2022/10/25 12:12:49;;;;;;;;;;;;;;;;;;4964953;28;19930;-80
2022/10/25 12:15:21;;;;;;;;;;;;;;;;;;4973759;28;19933;-81
2022/10/25 12:17:54;;;;;;;;;;;;;;;;;;4963401;28;19930;-80
2022/10/25 12:20:21;;;;;;;;;;;;;;;;;;4957166;28;20211;-81
2022/10/25 12:22:49;;;;;;;;;;;;;;;;;;4952149;28;20648;-80
2022/10/25 12:25:21;;;;;;;;;;;;;;;;;;4959923;28;19937;-81
2022/10/25 12:27:49;;;;;;;;;;;;;;;;;;4944324;28;19933;-81
2022/10/25 12:30:17;;;;;;;;;;;;;;;;;;4965161;28;20583;-80
2022/10/25 12:32:44;;;;;;;;;;;;;;;;;;4944583;28;20209;-79
2022/10/25 12:35:17;;;;;;;;;;;;;;;;;;4950085;28;19930;-80
2022/10/25 12:37:49;;;;;;;;;;;;;;;;;;4950881;28;19930;-79
2022/10/25 12:40:17;;;;;;;;;;;;;;;;;;4967370;28;19930;-80
2022/10/25 12:42:49;;;;;;;;;;;;;;;;;;4952177;28;19930;-81
2022/10/25 12:45:22;;;;;;;;;;;;;;;;;;4961457;28;19953;-83
2022/10/25 12:47:49;;;;;;;;;;;;;;;;;;4953834;28;19937;-81
2022/10/25 12:50:22;;;;;;;;;;;;;;;;;;4940196;28;19933;-81
2022/10/25 12:52:54;;;;;;;;;;;;;;;;;;4943935;28;19930;-81
2022/10/25 12:55:22;;;;;;;;;;;;;;;;;;4944445;28;19937;-82
2022/10/25 12:57:54;;;;;;;;;;;;;;;;;;4959044;28;19936;-82
2022/10/25 13:00:21;;;;;;;;;;;;;;;;;;4949903;28;19930;-83
2022/10/25 13:02:49;;;;;;;;;;;;;;;;;;4950094;28;20310;-80
2022/10/25 13:05:21;;;;;;;;;;;;;;;;;;4951424;28;19926;-85
2022/10/25 13:07:49;;;;;;;;;;;;;;;;;;4957328;28;19930;-82
2022/10/25 13:10:17;;;;;;;;;;;;;;;;;;4970850;28;19930;-81
2022/10/25 13:12:49;;;;;;;;;;;;;;;;;;4951188;28;19938;-81
2022/10/25 13:15:22;;;;;;;;;;;;;;;;;;4948760;28;19925;-83
2022/10/25 13:17:54;;;;;;;;;;;;;;;;;;4961547;28;20441;-84
2022/10/25 13:20:27;;;;;;;;;;;;;;;;;;4949946;28;19930;-82
2022/10/25 13:22:59;;;;;;;;;;;;;;;;;;4960178;28;19930;-82
2022/10/25 13:25:32;;;;;;;;;;;;;;;;;;4951567;28;19930;-82
2022/10/25 13:27:59;;;;;;;;;;;;;;;;;;4951058;28;20243;-81
2022/10/25 13:30:27;;;;;;;;;;;;;;;;;;4951044;28;19930;-83
2022/10/25 13:32:54;;;;;;;;;;;;;;;;;;4946272;28;19937;-83
2022/10/25 13:35:27;;;;;;;;;;;;;;;;;;4953756;28;19930;-80
2022/10/25 13:37:59;;;;;;;;;;;;;;;;;;4947462;28;19930;-84
2022/10/25 13:40:27;;;;;;;;;;;;;;;;;;4945137;28;19936;-83
2022/10/25 13:42:54;;;;;;;;;;;;;;;;;;4948013;28;20512;-82
2022/10/25 13:45:22;;;;;;;;;;;;;;;;;;4943931;28;19929;-83
2022/10/25 13:47:49;;;;;;;;;;;;;;;;;;4947972;28;19936;-82
2022/10/25 13:50:17;;;;;;;;;;;;;;;;;;4964763;28;20119;-84
2022/10/25 13:52:44;;;;;;;;;;;;;;;;;;4959812;28;19929;-84
2022/10/25 13:55:12;;;;;;;;;;;;;;;;;;4948673;28;20395;-81
2022/10/25 13:57:40;;;;;;;;;;;;;;;;;;4951480;28;20046;-81
2022/10/25 14:00:07;;;;;;;;;;;;;;;;;;4959694;28;19937;-82
2022/10/25 14:02:38;;;;;;;;;;;;;;;;;;4945612;28;19930;-84
2022/10/25 14:05:11;;;;;;;;;;;;;;;;;;4942380;28;19938;-85
2022/10/25 14:07:38;;;;;;;;;;;;;;;;;;4962303;28;19929;-80
2022/10/25 14:10:06;;;;;;;;;;;;;;;;;;4949718;28;19929;-82
2022/10/25 14:12:38;;;;;;;;;;;;;;;;;;4973360;28;20299;-83
2022/10/25 14:15:06;;;;;;;;;;;;;;;;;;4951553;28;20502;-83
2022/10/25 14:17:33;;;;;;;;;;;;;;;;;;4946640;28;19930;-84
2022/10/25 14:20:01;;;;;;;;;;;;;;;;;;4956004;28;19932;-82
2022/10/25 14:22:34;;;;;;;;;;;;;;;;;;4958015;28;19930;-83
2022/10/25 14:25:01;;;;;;;;;;;;;;;;;;4963318;28;19926;-83
2022/10/25 14:27:29;;;;;;;;;;;;;;;;;;4954854;28;20617;-82
2022/10/25 14:30:01;;;;;;;;;;;;;;;;;;4961696;28;20806;-83
2022/10/25 14:32:29;;;;;;;;;;;;;;;;;;4951003;28;19930;-80
2022/10/25 14:35:01;;;;;;;;;;;;;;;;;;4945815;28;19930;-83
2022/10/25 14:37:29;;;;;;;;;;;;;;;;;;4968526;28;19934;-84
2022/10/25 14:40:01;;;;;;;;;;;;;;;;;;4951042;28;20422;-81
2022/10/25 14:42:34;;;;;;;;;;;;;;;;;;4969428;28;20299;-82
2022/10/25 14:45:01;;;;;;;;;;;;;;;;;;4945495;28;20390;-83
2022/10/25 14:47:35;;;;;;;;;;;;;;;;;;4969435;28;20449;-82
2022/10/25 14:50:03;;;;;;;;;;;;;;;;;;4951540;28;19937;-82
2022/10/25 14:52:36;;;;;;;;;;;;;;;;;;4961607;28;20413;-83
2022/10/25 14:55:03;;;;;;;;;;;;;;;;;;4965518;28;19930;-82
2022/10/25 14:57:36;;;;;;;;;;;;;;;;;;4960291;28;20449;-83
2022/10/25 15:00:03;;;;;;;;;;;;;;;;;;4949443;28;20657;-86
2022/10/25 15:02:31;;;;;;;;;;;;;;;;;;4945908;28;19930;-83
2022/10/25 15:04:58;;;;;;;;;;;;;;;;;;4949278;28;19937;-82
2022/10/25 15:07:26;;;;;;;;;;;;;;;;;;4950160;28;19926;-81
2022/10/25 15:09:58;;;;;;;;;;;;;;;;;;4954845;28;19945;-86
2022/10/25 15:12:26;;;;;;;;;;;;;;;;;;4964447;28;20303;-84
2022/10/25 15:14:58;;;;;;;;;;;;;;;;;;4952972;28;19930;-83
2022/10/25 15:17:26;;;;;;;;;;;;;;;;;;4963723;28;19930;-83
2022/10/25 15:19:53;;;;;;;;;;;;;;;;;;4948345;28;20307;-83
2022/10/25 15:22:26;;;;;;;;;;;;;;;;;;4963444;28;19930;-81
2022/10/25 15:24:54;;;;;;;;;;;;;;;;;;4952210;28;19930;-82
2022/10/25 15:27:22;;;;;;;;;;;;;;;;;;4968101;28;19937;-84
2022/10/25 15:29:49;;;;;;;;;;;;;;;;;;4959575;28;19929;-83
2022/10/25 15:32:17;;;;;;;;;;;;;;;;;;4947536;28;19930;-85
2022/10/25 15:34:44;;;;;;;;;;;;;;;;;;4960156;28;19930;-84
2022/10/25 15:37:12;;;;;;;;;;;;;;;;;;4963550;28;19937;-86
2022/10/25 15:39:44;;;;;;;;;;;;;;;;;;4950639;28;19929;-83
2022/10/25 15:42:12;;;;;;;;;;;;;;;;;;4951819;28;20387;-82
2022/10/25 15:44:40;;;;;;;;;;;;;;;;;;4967481;28;19946;-83
2022/10/25 15:47:12;;;;;;;;;;;;;;;;;;4962282;28;19934;-85
2022/10/25 15:49:40;;;;;;;;;;;;;;;;;;4969720;28;19929;-84
2022/10/25 15:52:07;;;;;;;;;;;;;;;;;;4958630;28;20387;-83
2022/10/25 15:54:40;;;;;;;;;;;;;;;;;;4962934;28;19930;-83
2022/10/25 15:57:12;;;;;;;;;;;;;;;;;;4955992;28;19930;-80
2022/10/25 15:59:45;;;;;;;;;;;;;;;;;;4955984;28;19930;-84
2022/10/25 16:02:12;;;;;;;;;;;;;;;;;;4959669;28;19929;-83
2022/10/25 16:04:40;;;;;;;;;;;;;;;;;;4968825;28;19930;-85
2022/10/25 16:07:07;;;;;;;;;;;;;;;;;;4978267;28;19930;-83
2022/10/25 16:09:35;;;;;;;;;;;;;;;;;;4959986;28;19936;-84
2022/10/25 16:12:02;;;;;;;;;;;;;;;;;;4973836;28;19937;-85
2022/10/25 16:14:30;;;;;;;;;;;;;;;;;;4957241;28;19930;-83
2022/10/25 16:16:57;;;;;;;;;;;;;;;;;;4959698;28;19937;-83
2022/10/25 16:19:33;;;;;;;;;;;;;;;;;;4961884;28;20306;-82
2022/10/25 16:22:05;;;;;;;;;;;;;;;;;;4972358;28;19984;-84
2022/10/25 16:24:38;;;;;;;;;;;;;;;;;;4975914;28;19930;-84
2022/10/25 16:27:05;;;;;;;;;;;;;;;;;;4972859;28;19937;-83
2022/10/25 16:29:33;;;;;;;;;;;;;;;;;;4957776;28;21007;-84
2022/10/25 16:32:05;;;;;;;;;;;;;;;;;;4954150;28;19968;-84
2022/10/25 16:34:33;;;;;;;;;;;;;;;;;;4957165;28;19930;-84
2022/10/25 16:37:05;;;;;;;;;;;;;;;;;;4968721;28;19930;-84
2022/10/25 16:39:33;;;;;;;;;;;;;;;;;;4953393;28;19937;-82
2022/10/25 16:42:00;;;;;;;;;;;;;;;;;;4925778;28;19936;-85
2022/10/25 16:44:28;;;;;;;;;;;;;;;;;;4953937;28;19973;-84
2022/10/25 16:47:01;;;;;;;;;;;;;;;;;;4961060;28;19937;-83
2022/10/25 16:49:28;;;;;;;;;;;;;;;;;;4955486;28;19930;-85
2022/10/25 16:51:59;;;;;;;;;;;;;;;;;;4953136;28;19937;-83
2022/10/25 16:54:26;;;;;;;;;;;;;;;;;;4962840;28;19937;-84
2022/10/25 16:56:54;;;;;;;;;;;;;;;;;;4967384;28;19930;-82
2022/10/25 16:59:27;;;;;;;;;;;;;;;;;;4952922;28;19930;-82